Time;durP1;ratioP1;P1;durP2;ratioP2;P2;SDS_P1;SDS_P2;PMS_P1;PMS_P2;Temp;Humidity;BMP_temperature;BMP_pressure;BME280_temperature;BME280_humidity;BME280_pressure;Samples;Min_cycle;Max_cycle;Signal;HPM_P1;HPM_P2
2022/08/02 03:03:43;;;;;;;4.47;2.03;;;26.70;45.60;;;;;;4905485;28;45193;-61
2022/08/02 03:06:08;;;;;;;4.72;2.00;;;26.80;45.70;;;;;;4910958;28;45219;-60
2022/08/02 03:08:34;;;;;;;3.83;1.77;;;26.70;45.60;;;;;;4894997;28;45510;-61
2022/08/02 03:10:59;;;;;;;1.83;1.73;;;26.70;45.60;;;;;;4894623;28;45395;-60
2022/08/02 03:13:25;;;;;;;2.78;2.05;;;26.70;45.60;;;;;;4909165;28;45394;-61
2022/08/02 03:15:52;;;;;;;2.95;2.17;;;26.70;45.60;;;;;;4905919;28;45309;-62
2022/08/02 03:18:31;;;;;;;4.15;1.75;;;26.70;45.60;;;;;;4913250;28;45486;-61
2022/08/02 03:21:04;;;;;;;2.85;2.20;;;26.70;45.60;;;;;;4912323;28;45411;-60
2022/08/02 03:23:29;;;;;;;2.55;2.35;;;26.70;45.60;;;;;;4910899;28;45474;-62
2022/08/02 03:25:55;;;;;;;2.22;2.10;;;26.70;45.50;;;;;;4910496;28;45350;-61
2022/08/02 03:28:21;;;;;;;3.72;2.20;;;26.70;45.50;;;;;;4896022;28;45956;-60
2022/08/02 03:30:46;;;;;;;2.05;1.83;;;26.70;45.50;;;;;;4908889;28;45242;-62
2022/08/02 03:33:12;;;;;;;2.47;2.00;;;26.70;45.50;;;;;;4912011;28;45277;-60
2022/08/02 03:35:39;;;;;;;1.88;1.77;;;26.70;45.50;;;;;;4911689;28;45496;-60
2022/08/02 03:38:04;;;;;;;2.10;1.95;;;26.70;45.50;;;;;;4878363;28;47297;-60
2022/08/02 03:40:30;;;;;;;3.05;2.10;;;26.70;45.50;;;;;;4909183;28;45413;-62
2022/08/02 03:42:55;;;;;;;2.13;1.92;;;26.70;45.50;;;;;;4905597;28;45768;-61
2022/08/02 03:45:21;;;;;;;2.90;1.95;;;26.70;45.50;;;;;;4908279;28;45408;-61
2022/08/02 03:47:47;;;;;;;2.22;2.03;;;26.70;45.50;;;;;;4910546;28;45462;-61
2022/08/02 03:50:12;;;;;;;1.77;1.63;;;26.70;45.40;;;;;;4909595;28;45536;-60
2022/08/02 03:52:42;;;;;;;3.92;2.00;;;26.60;45.40;;;;;;4911727;28;44732;-61
2022/08/02 03:55:08;;;;;;;4.28;2.00;;;26.60;45.40;;;;;;4912158;28;45566;-61
2022/08/02 03:57:39;;;;;;;3.42;2.50;;;26.60;45.40;;;;;;4909804;28;45530;-61
2022/08/02 04:00:06;;;;;;;3.50;2.38;;;26.60;45.40;;;;;;4903759;28;45248;-62
2022/08/02 04:02:32;;;;;;;3.20;2.28;;;26.60;45.40;;;;;;4906772;28;45297;-61
2022/08/02 04:04:57;;;;;;;3.35;2.47;;;26.60;45.30;;;;;;4917913;28;45396;-59
2022/08/02 04:07:23;;;;;;;2.50;2.00;;;26.60;45.30;;;;;;4914931;28;45407;-60
2022/08/02 04:09:48;;;;;;;2.80;2.35;;;26.60;45.30;;;;;;4907272;28;45305;-61
2022/08/02 04:12:14;;;;;;;6.20;2.47;;;26.60;45.30;;;;;;4910459;28;44663;-59
2022/08/02 04:14:40;;;;;;;2.70;2.17;;;26.60;45.30;;;;;;4913020;28;45545;-61
2022/08/02 04:17:07;;;;;;;2.88;2.28;;;26.60;45.20;;;;;;4906115;28;45564;-61
2022/08/02 04:19:47;;;;;;;3.05;2.15;;;26.60;45.20;;;;;;4894166;28;44689;-60
2022/08/02 04:22:20;;;;;;;3.83;2.15;;;26.60;45.20;;;;;;4910436;28;45215;-60
2022/08/02 04:24:48;;;;;;;3.28;2.30;;;26.60;45.30;;;;;;4892019;28;45551;-60
2022/08/02 04:27:14;;;;;;;2.05;1.92;;;26.60;45.30;;;;;;4911369;28;46508;-61
2022/08/02 04:29:40;;;;;;;2.83;2.30;;;26.60;45.20;;;;;;4911146;28;45546;-61
2022/08/02 04:32:06;;;;;;;3.05;2.40;;;26.60;45.30;;;;;;4904603;28;45334;-59
2022/08/02 04:34:31;;;;;;;2.30;2.10;;;26.60;45.20;;;;;;4913489;28;45582;-61
2022/08/02 04:36:57;;;;;;;2.05;1.75;;;26.50;45.30;;;;;;4913940;28;46260;-61
2022/08/02 04:39:23;;;;;;;2.53;2.22;;;26.50;45.30;;;;;;4910696;28;44745;-60
2022/08/02 04:41:49;;;;;;;3.55;2.20;;;26.60;45.30;;;;;;4911646;28;45478;-62
2022/08/02 04:44:14;;;;;;;2.58;2.05;;;26.50;45.20;;;;;;4912672;28;45158;-61
2022/08/02 04:46:40;;;;;;;3.95;2.50;;;26.60;45.20;;;;;;4910783;28;45490;-60
2022/08/02 04:49:06;;;;;;;3.95;2.42;;;26.50;45.20;;;;;;4908497;28;45213;-60
2022/08/02 04:51:43;;;;;;;2.65;2.10;;;26.50;45.20;;;;;;4901197;28;45478;-60
2022/08/02 04:54:09;;;;;;;6.25;2.38;;;26.60;45.30;;;;;;4916161;28;45550;-60
2022/08/02 04:56:35;;;;;;;2.25;2.05;;;26.50;45.30;;;;;;4914208;28;45991;-61
2022/08/02 04:59:01;;;;;;;5.30;2.30;;;26.60;45.30;;;;;;4897415;28;44686;-62
2022/08/02 05:01:26;;;;;;;4.55;2.40;;;26.50;45.30;;;;;;4908728;28;45489;-60
2022/08/02 05:03:52;;;;;;;2.38;1.95;;;26.50;45.50;;;;;;4916970;28;45653;-60
2022/08/02 05:06:20;;;;;;;5.60;2.30;;;26.50;45.50;;;;;;4918484;28;45310;-60
2022/08/02 05:08:46;;;;;;;3.03;2.55;;;26.50;45.60;;;;;;4918919;28;45200;-61
2022/08/02 05:11:12;;;;;;;5.43;2.20;;;26.50;45.70;;;;;;4915633;28;44794;-60
2022/08/02 05:13:39;;;;;;;1.88;1.67;;;26.50;45.70;;;;;;4916742;28;45153;-62
2022/08/02 05:16:04;;;;;;;3.97;2.60;;;26.40;45.70;;;;;;4906202;28;47256;-61
2022/08/02 05:18:30;;;;;;;4.82;1.83;;;26.40;45.80;;;;;;4924235;28;45286;-61
2022/08/02 05:20:56;;;;;;;3.17;2.22;;;26.40;45.90;;;;;;4920143;28;45391;-61
2022/08/02 05:23:21;;;;;;;2.42;2.13;;;26.40;45.90;;;;;;4915719;28;44890;-60
2022/08/02 05:25:47;;;;;;;4.35;2.45;;;26.70;45.60;;;;;;4914299;28;45102;-61
2022/08/02 05:28:12;;;;;;;4.03;2.40;;;27.60;44.30;;;;;;4909342;28;45442;-61
2022/08/02 05:30:38;;;;;;;4.03;2.35;;;28.00;43.50;;;;;;4910633;28;45003;-61
2022/08/02 05:33:04;;;;;;;2.28;1.77;;;27.70;43.60;;;;;;4914743;28;45448;-62
2022/08/02 05:35:30;;;;;;;2.50;2.13;;;27.40;44.70;;;;;;4915814;28;46422;-61
2022/08/02 05:37:55;;;;;;;2.42;2.22;;;27.20;44.50;;;;;;4913038;28;45490;-60
2022/08/02 05:40:21;;;;;;;2.75;2.40;;;27.00;44.90;;;;;;4915652;28;45213;-60
2022/08/02 05:42:46;;;;;;;2.60;2.13;;;26.90;45.30;;;;;;4913201;28;45349;-62
2022/08/02 05:45:12;;;;;;;3.83;2.58;;;26.80;45.50;;;;;;4915638;28;45539;-60
2022/08/02 05:47:38;;;;;;;3.42;2.90;;;26.70;45.80;;;;;;4900044;28;45285;-59
2022/08/02 05:50:05;;;;;;;2.50;2.30;;;26.70;46.00;;;;;;4909625;28;44671;-61
2022/08/02 05:52:49;;;;;;;3.55;2.47;;;26.70;46.10;;;;;;4910692;28;44738;-62
2022/08/02 05:55:22;;;;;;;11.40;2.85;;;26.70;46.60;;;;;;4909819;28;45533;-60
2022/08/02 05:58:01;;;;;;;2.97;2.60;;;26.60;46.60;;;;;;4908259;28;45295;-62
2022/08/02 06:00:31;;;;;;;2.63;2.35;;;26.60;47.00;;;;;;4907113;28;46231;-61
2022/08/02 06:03:16;;;;;;;2.60;2.40;;;26.60;46.60;;;;;;4906876;28;45267;-60
2022/08/02 06:06:05;;;;;;;2.78;2.58;;;26.60;47.00;;;;;;4912405;28;45772;-61
2022/08/02 06:08:43;;;;;;;5.03;2.38;;;26.60;46.90;;;;;;4899687;28;45135;-59
2022/08/02 06:11:19;;;;;;;3.50;2.60;;;26.60;46.90;;;;;;4899388;28;45385;-60
2022/08/02 06:13:45;;;;;;;2.88;2.67;;;26.60;46.80;;;;;;4897843;28;45707;-58
2022/08/02 06:16:10;;;;;;;4.40;1.88;;;26.60;46.80;;;;;;4913598;28;45601;-61
2022/08/02 06:18:36;;;;;;;3.72;2.22;;;26.60;46.80;;;;;;4915848;28;45507;-58
2022/08/02 06:21:03;;;;;;;2.30;2.08;;;26.60;46.80;;;;;;4912845;28;44758;-58
2022/08/02 06:23:29;;;;;;;3.42;2.80;;;26.70;47.00;;;;;;4917372;28;45111;-60
2022/08/02 06:25:56;;;;;;;2.90;2.55;;;26.70;46.90;;;;;;4917316;28;45465;-59
2022/08/02 06:28:21;;;;;;;4.70;2.40;;;26.70;46.90;;;;;;4919348;28;45375;-58
2022/08/02 06:30:47;;;;;;;2.58;2.05;;;26.70;46.90;;;;;;4918464;28;45316;-59
2022/08/02 06:33:13;;;;;;;3.20;2.42;;;26.70;46.90;;;;;;4923879;28;45091;-57
2022/08/02 06:35:47;;;;;;;2.20;2.00;;;26.70;46.90;;;;;;4922657;28;45330;-57
2022/08/02 06:38:18;;;;;;;2.35;2.15;;;26.80;47.10;;;;;;4915743;28;45616;-56
2022/08/02 06:41:02;;;;;;;2.20;2.05;;;26.80;47.00;;;;;;4920159;28;45424;-54
2022/08/02 06:43:52;;;;;;;2.85;2.25;;;26.80;46.90;;;;;;4912501;28;45847;-59
2022/08/02 06:46:18;;;;;;;2.00;1.90;;;26.90;47.00;;;;;;4922646;28;45789;-58
2022/08/02 06:48:43;;;;;;;2.25;1.98;;;26.90;46.70;;;;;;4904012;28;45229;-59
2022/08/02 06:51:09;;;;;;;2.72;2.08;;;27.00;46.60;;;;;;4922012;28;45223;-59
2022/08/02 06:53:35;;;;;;;3.22;2.40;;;27.00;46.60;;;;;;4917601;28;44884;-58
2022/08/02 06:56:00;;;;;;;2.72;2.50;;;27.00;46.50;;;;;;4917070;28;46489;-58
2022/08/02 06:58:26;;;;;;;3.67;2.28;;;27.10;46.50;;;;;;4915672;28;45262;-56
2022/08/02 07:00:51;;;;;;;2.53;2.33;;;27.10;46.50;;;;;;4923749;23;45402;-60
2022/08/02 07:03:17;;;;;;;2.60;2.40;;;27.20;46.40;;;;;;4899631;28;45096;-58
2022/08/02 07:05:47;;;;;;;2.40;2.20;;;27.20;46.40;;;;;;4914380;28;45029;-59
2022/08/02 07:08:16;;;;;;;2.50;2.30;;;27.20;46.40;;;;;;4915262;28;44831;-59
2022/08/02 07:10:41;;;;;;;4.65;2.30;;;27.20;46.40;;;;;;4884185;28;45330;-59
2022/08/02 07:13:07;;;;;;;4.20;1.90;;;27.20;46.40;;;;;;4902862;28;45625;-58
2022/08/02 07:15:32;;;;;;;2.45;2.25;;;27.30;46.40;;;;;;4880696;28;46379;-59
2022/08/02 07:17:58;;;;;;;2.47;2.28;;;27.30;46.40;;;;;;4860476;28;45352;-58
2022/08/02 07:20:24;;;;;;;4.88;2.20;;;27.30;46.30;;;;;;4891958;28;44906;-58
2022/08/02 07:22:49;;;;;;;3.85;2.05;;;27.30;46.30;;;;;;4890992;28;45432;-61
2022/08/02 07:25:15;;;;;;;2.60;1.98;;;27.40;46.20;;;;;;4888117;28;47379;-58
2022/08/02 07:27:40;;;;;;;3.00;2.30;;;27.40;46.20;;;;;;4894367;28;45219;-60
2022/08/02 07:30:07;;;;;;;2.45;2.00;;;27.40;46.20;;;;;;4899637;28;45120;-60
2022/08/02 07:32:32;;;;;;;3.28;2.17;;;27.40;46.30;;;;;;4893846;28;45975;-59
2022/08/02 07:34:58;;;;;;;3.15;2.40;;;27.40;46.30;;;;;;4894350;28;46322;-60
2022/08/02 07:37:25;;;;;;;2.10;1.90;;;27.40;46.40;;;;;;4897533;28;45373;-59
2022/08/02 07:39:51;;;;;;;3.58;2.25;;;27.40;46.40;;;;;;4893784;28;44846;-59
2022/08/02 07:42:17;;;;;;;2.25;2.05;;;27.50;46.40;;;;;;4898999;28;45250;-60
2022/08/02 07:44:42;;;;;;;2.45;2.20;;;27.50;46.40;;;;;;4887356;28;45628;-59
2022/08/02 07:47:08;;;;;;;3.03;2.35;;;27.50;46.30;;;;;;4891396;28;45209;-60
2022/08/02 07:49:33;;;;;;;2.70;2.50;;;27.60;46.30;;;;;;4902424;28;45136;-60
2022/08/02 07:51:59;;;;;;;2.85;2.50;;;27.60;46.30;;;;;;4893788;28;45307;-60
2022/08/02 07:54:25;;;;;;;3.22;2.30;;;27.60;46.30;;;;;;4893462;28;45183;-60
2022/08/02 07:56:52;;;;;;;5.07;2.47;;;27.60;46.30;;;;;;4894013;28;45331;-60
2022/08/02 07:59:17;;;;;;;3.45;2.40;;;27.60;46.30;;;;;;4891770;28;45463;-60
2022/08/02 08:01:43;;;;;;;2.53;2.15;;;27.60;46.20;;;;;;4890594;28;44999;-60
2022/08/02 08:04:09;;;;;;;2.72;2.53;;;27.70;46.20;;;;;;4893121;28;45157;-59
2022/08/02 08:06:34;;;;;;;3.35;2.75;;;27.70;46.20;;;;;;4895100;28;45430;-60
2022/08/02 08:09:00;;;;;;;2.83;2.22;;;27.70;46.90;;;;;;4895939;28;45378;-60
2022/08/02 08:11:26;;;;;;;2.80;2.40;;;27.70;46.30;;;;;;4894085;28;45581;-59
2022/08/02 08:13:51;;;;;;;4.47;2.40;;;27.70;46.30;;;;;;4897036;28;45137;-59
2022/08/02 08:16:17;;;;;;;2.80;2.60;;;27.70;46.30;;;;;;4894743;28;45188;-59
2022/08/02 08:18:43;;;;;;;4.70;2.47;;;27.70;46.20;;;;;;4898022;28;45107;-60
2022/08/02 08:21:08;;;;;;;2.65;2.45;;;27.80;46.20;;;;;;4896287;28;45511;-59
2022/08/02 08:23:35;;;;;;;3.17;2.40;;;27.80;46.30;;;;;;4896066;28;47280;-58
2022/08/02 08:26:00;;;;;;;3.92;2.60;;;27.80;46.20;;;;;;4896988;28;45088;-58
2022/08/02 08:28:26;;;;;;;3.83;2.08;;;27.90;46.30;;;;;;4897544;28;44688;-59
2022/08/02 08:30:52;;;;;;;2.80;2.55;;;27.90;46.20;;;;;;4893875;28;45494;-58
2022/08/02 08:33:17;;;;;;;2.63;2.40;;;27.90;46.30;;;;;;4892727;28;45448;-61
2022/08/02 08:35:43;;;;;;;3.47;2.28;;;27.90;46.30;;;;;;4895655;28;45182;-60
2022/08/02 08:38:08;;;;;;;2.38;2.17;;;27.90;46.30;;;;;;4898882;28;45240;-58
2022/08/02 08:40:35;;;;;;;2.50;2.30;;;27.90;46.30;;;;;;4887753;28;45108;-60
2022/08/02 08:43:00;;;;;;;3.03;2.53;;;27.90;46.30;;;;;;4894765;28;45297;-59
2022/08/02 08:45:26;;;;;;;2.63;2.40;;;27.90;46.30;;;;;;4895573;28;45192;-59
2022/08/02 08:47:56;;;;;;;3.22;2.20;;;27.90;46.30;;;;;;4897640;28;45031;-63
2022/08/02 08:50:23;;;;;;;4.22;2.47;;;28.00;46.20;;;;;;4887399;28;44747;-59
2022/08/02 08:53:09;;;;;;;4.40;2.20;;;28.00;46.20;;;;;;4893414;28;45180;-60
2022/08/02 08:55:35;;;;;;;2.92;2.15;;;28.00;46.20;;;;;;4893161;28;45389;-61
2022/08/02 08:58:01;;;;;;;2.60;2.08;;;28.00;46.00;;;;;;4890281;28;45381;-60
2022/08/02 09:00:29;;;;;;;3.00;2.22;;;28.10;46.70;;;;;;4890904;28;44956;-58
2022/08/02 09:02:54;;;;;;;3.78;2.40;;;28.10;45.90;;;;;;4885392;28;46104;-56
2022/08/02 09:05:20;;;;;;;4.18;2.15;;;28.10;45.80;;;;;;4873595;29;45057;-58
2022/08/02 09:07:49;;;;;;;4.90;2.42;;;28.10;45.70;;;;;;4889635;28;45639;-59
2022/08/02 09:10:44;;;;;;;3.17;2.42;;;28.10;45.60;;;;;;4894101;28;45424;-61
2022/08/02 09:13:16;;;;;;;2.65;2.45;;;28.10;45.50;;;;;;4888841;28;45380;-60
2022/08/02 09:15:44;;;;;;;2.10;1.85;;;28.20;45.50;;;;;;4895553;28;45176;-59
2022/08/02 09:18:09;;;;;;;2.50;2.30;;;28.20;45.40;;;;;;4887728;28;45741;-60
2022/08/02 09:20:53;;;;;;;2.53;1.92;;;28.20;45.40;;;;;;4894256;28;45095;-60
2022/08/02 09:23:21;;;;;;;2.58;2.17;;;28.20;45.10;;;;;;4892203;28;45229;-59
2022/08/02 09:26:00;;;;;;;2.05;1.80;;;28.30;45.30;;;;;;4893623;28;45423;-60
2022/08/02 09:28:27;;;;;;;2.10;2.00;;;28.30;45.00;;;;;;4896768;28;45141;-60
2022/08/02 09:30:55;;;;;;;4.03;2.80;;;28.30;45.00;;;;;;4878814;29;45145;-60
2022/08/02 09:33:25;;;;;;;3.28;2.75;;;28.40;44.70;;;;;;4881597;29;46087;-61
2022/08/02 09:36:01;;;;;;;4.78;2.50;;;28.40;44.70;;;;;;4894797;28;45173;-60
2022/08/02 09:38:27;;;;;;;2.53;2.33;;;28.40;44.60;;;;;;4875043;28;45288;-60
2022/08/02 09:40:56;;;;;;;3.35;2.22;;;28.40;44.60;;;;;;4893215;28;45223;-61
2022/08/02 09:43:33;;;;;;;2.45;2.13;;;28.40;44.50;;;;;;4852981;28;45369;-59
2022/08/02 09:45:58;;;;;;;4.45;2.13;;;28.50;44.50;;;;;;4012258;29;10000771;-60
2022/08/02 09:48:24;;;;;;;1.73;1.60;;;28.50;44.40;;;;;;4844857;29;45935;-59
2022/08/02 09:50:50;;;;;;;2.30;2.10;;;28.50;44.30;;;;;;4849813;29;46152;-59
2022/08/02 09:53:15;;;;;;;2.50;2.30;;;28.60;44.20;;;;;;3997713;29;10000589;-59
2022/08/02 09:55:41;;;;;;;2.13;1.92;;;28.60;44.20;;;;;;4849778;29;45500;-62
2022/08/02 09:58:19;;;;;;;3.60;2.10;;;28.60;43.90;;;;;;4837789;29;45382;-61
2022/08/02 10:00:54;;;;;;;4.43;2.03;;;28.60;43.50;;;;;;4850758;29;45123;-59
2022/08/02 10:03:20;;;;;;;3.28;2.08;;;28.70;43.50;;;;;;4850641;29;47471;-61
2022/08/02 10:05:47;;;;;;;2.17;1.98;;;28.70;43.60;;;;;;4853634;29;45304;-60
2022/08/02 10:08:13;;;;;;;2.55;2.22;;;28.60;43.40;;;;;;4852391;29;44962;-60
2022/08/02 10:10:39;;;;;;;2.10;1.80;;;28.70;43.40;;;;;;4853486;29;45307;-60
2022/08/02 10:13:04;;;;;;;2.45;2.25;;;28.60;43.40;;;;;;4848199;29;45329;-61
2022/08/02 10:15:30;;;;;;;2.38;2.00;;;28.70;43.40;;;;;;4834752;29;45479;-59
2022/08/02 10:17:56;;;;;;;2.13;1.80;;;28.70;43.20;;;;;;4850326;29;45256;-60
2022/08/02 10:20:22;;;;;;;2.05;1.85;;;28.70;43.30;;;;;;4837638;29;45189;-60
2022/08/02 10:22:47;;;;;;;2.10;1.90;;;28.80;43.10;;;;;;4850918;29;46046;-60
2022/08/02 10:25:13;;;;;;;1.98;1.88;;;28.70;42.80;;;;;;4849771;29;45366;-61
2022/08/02 10:27:38;;;;;;;2.80;1.70;;;28.80;42.60;;;;;;4849396;29;45538;-61
2022/08/02 10:30:04;;;;;;;2.00;1.80;;;28.80;42.50;;;;;;4835589;29;45320;-59
2022/08/02 10:32:34;;;;;;;3.00;2.17;;;28.90;42.50;;;;;;4847696;29;45444;-61
2022/08/02 10:35:07;;;;;;;2.05;1.83;;;28.90;42.40;;;;;;4834096;29;45654;-61
2022/08/02 10:37:33;;;;;;;3.80;2.10;;;28.90;42.10;;;;;;4850381;29;45205;-62
2022/08/02 10:39:59;;;;;;;1.80;1.70;;;28.90;42.10;;;;;;4823001;29;45463;-60
2022/08/02 10:42:54;;;;;;;2.17;1.98;;;28.90;42.00;;;;;;4852998;29;45956;-61
2022/08/02 10:45:21;;;;;;;1.55;1.45;;;29.00;41.20;;;;;;4842295;29;45462;-60
2022/08/02 10:47:57;;;;;;;3.78;1.80;;;29.00;41.90;;;;;;4850729;29;45715;-60
2022/08/02 10:50:45;;;;;;;2.28;2.08;;;29.10;41.50;;;;;;4852398;29;45024;-59
2022/08/02 10:53:22;;;;;;;1.98;1.67;;;29.10;41.20;;;;;;4850504;29;47626;-61
2022/08/02 10:55:48;;;;;;;2.08;1.88;;;29.10;41.20;;;;;;4851031;29;45578;-61
2022/08/02 10:58:21;;;;;;;1.75;1.65;;;29.10;41.60;;;;;;4865037;29;45332;-59
2022/08/02 11:00:47;;;;;;;1.90;1.80;;;29.10;41.10;;;;;;4851498;29;45603;-61
2022/08/02 11:03:28;;;;;;;1.85;1.75;;;29.10;41.40;;;;;;4850680;29;46011;-61
2022/08/02 11:06:04;;;;;;;3.33;1.67;;;29.20;40.80;;;;;;4850897;29;45421;-61
2022/08/02 11:08:30;;;;;;;4.93;1.83;;;29.20;41.10;;;;;;4849751;29;46025;-62
2022/08/02 11:11:00;;;;;;;4.20;2.00;;;29.20;41.30;;;;;;4853874;29;45246;-60
2022/08/02 11:13:25;;;;;;;2.15;1.90;;;29.20;41.10;;;;;;4867347;29;45659;-60
2022/08/02 11:16:01;;;;;;;3.70;1.73;;;29.30;41.20;;;;;;4849357;29;45337;-61
2022/08/02 11:18:59;;;;;;;2.30;1.98;;;29.30;40.90;;;;;;4848145;29;45321;-60
2022/08/02 11:21:31;;;;;;;6.90;1.70;;;29.30;40.60;;;;;;4851867;29;45145;-59
2022/08/02 11:24:25;;;;;;;2.50;2.10;;;29.30;41.10;;;;;;4852747;29;47115;-60
2022/08/02 11:26:50;;;;;;;2.45;1.98;;;29.40;40.50;;;;;;4852320;29;45757;-62
2022/08/02 11:29:16;;;;;;;2.47;1.90;;;29.40;41.00;;;;;;4849544;29;46276;-60
2022/08/02 11:31:42;;;;;;;3.22;2.40;;;29.40;41.00;;;;;;4850450;29;44882;-59
2022/08/02 11:34:08;;;;;;;5.22;2.42;;;29.40;40.90;;;;;;4836962;29;47644;-59
2022/08/02 11:36:51;;;;;;;3.53;1.80;;;29.40;40.80;;;;;;4852551;29;45078;-60
2022/08/02 11:39:18;;;;;;;1.98;1.65;;;29.40;40.30;;;;;;4851952;29;45372;-59
2022/08/02 11:41:51;;;;;;;2.45;2.03;;;29.50;40.60;;;;;;4856773;29;45636;-59
2022/08/02 11:44:17;;;;;;;3.72;1.70;;;29.50;40.20;;;;;;4849446;29;48059;-60
2022/08/02 11:46:43;;;;;;;2.63;1.70;;;29.40;40.30;;;;;;4849047;29;45612;-59
2022/08/02 11:49:16;;;;;;;3.03;1.83;;;29.50;40.30;;;;;;4849227;29;45749;-58
2022/08/02 11:52:00;;;;;;;2.47;2.13;;;29.50;39.90;;;;;;4849769;29;45750;-59
2022/08/02 11:54:33;;;;;;;2.60;1.95;;;29.50;40.00;;;;;;4853829;29;45517;-60
2022/08/02 11:57:13;;;;;;;2.47;2.05;;;29.50;40.20;;;;;;4853224;29;45560;-59
2022/08/02 11:59:39;;;;;;;2.55;2.22;;;29.50;39.90;;;;;;4851288;29;44794;-60
2022/08/02 12:02:05;;;;;;;2.58;1.75;;;29.50;40.30;;;;;;4851508;29;45303;-59
2022/08/02 12:04:31;;;;;;;2.03;1.80;;;29.60;40.20;;;;;;4850690;29;46225;-58
2022/08/02 12:06:57;;;;;;;1.70;1.60;;;29.60;40.10;;;;;;4000477;29;10000588;-60
2022/08/02 12:09:24;;;;;;;2.28;1.75;;;29.60;39.90;;;;;;4849617;29;45520;-61
2022/08/02 12:11:58;;;;;;;1.98;1.60;;;29.70;39.90;;;;;;4835831;29;45051;-61
2022/08/02 12:14:29;;;;;;;2.05;1.80;;;29.70;39.70;;;;;;4626683;28;10001743;-62
2022/08/02 12:19:39;;;;;;;4.38;1.50;;;29.80;39.50;;;;;;4832821;29;45551;-60
2022/08/02 12:22:24;;;;;;;2.05;1.60;;;29.80;39.30;;;;;;4833766;29;45270;-62
2022/08/02 12:24:54;;;;;;;2.25;1.40;;;29.80;39.00;;;;;;4832111;29;45444;-60
2022/08/02 12:27:46;;;;;;;1.50;1.40;;;29.80;39.00;;;;;;4829714;29;46193;-59
2022/08/02 12:30:13;;;;;;;2.10;1.40;;;29.90;38.10;;;;;;4831246;29;45220;-57
2022/08/02 12:32:39;;;;;;;1.40;1.30;;;29.90;39.00;;;;;;4860609;29;45190;-60
2022/08/02 12:35:13;;;;;;;1.98;1.45;;;29.90;38.80;;;;;;4829789;29;46040;-61
2022/08/02 12:37:46;;;;;;;1.17;1.13;;;29.90;38.10;;;;;;4830556;29;45402;-60
2022/08/02 12:40:19;;;;;;;1.25;1.15;;;30.00;37.90;;;;;;4827730;29;45310;-61
2022/08/02 12:42:49;;;;;;;2.00;1.30;;;30.00;37.90;;;;;;4860163;29;46142;-62
2022/08/02 12:45:15;;;;;;;2.40;1.35;;;30.00;38.00;;;;;;4831394;29;45682;-59
2022/08/02 12:47:44;;;;;;;1.20;1.10;;;30.00;38.20;;;;;;4829763;29;44742;-62
2022/08/02 12:50:21;;;;;;;1.60;1.50;;;30.00;38.00;;;;;;4830454;29;45268;-60
2022/08/02 12:52:47;;;;;;;1.33;1.23;;;30.00;37.40;;;;;;4827418;29;45569;-61
2022/08/02 12:55:25;;;;;;;1.15;1.08;;;30.00;37.80;;;;;;4832164;29;47595;-60
2022/08/02 12:57:55;;;;;;;1.20;1.10;;;30.00;37.10;;;;;;4831122;29;45646;-61
2022/08/02 13:00:29;;;;;;;1.52;1.30;;;30.10;37.40;;;;;;4831216;29;45191;-60
2022/08/02 13:02:55;;;;;;;1.30;1.20;;;30.10;37.10;;;;;;4828335;29;45635;-60
2022/08/02 13:05:20;;;;;;;0.88;0.85;;;30.10;37.40;;;;;;4831596;29;46330;-60
2022/08/02 13:07:46;;;;;;;1.27;1.10;;;30.20;37.40;;;;;;4833220;29;45143;-60
2022/08/02 13:10:12;;;;;;;1.00;1.00;;;30.20;37.30;;;;;;4832122;29;45126;-60
2022/08/02 13:12:38;;;;;;;1.33;1.23;;;30.20;37.10;;;;;;4831044;29;45148;-61
2022/08/02 13:15:05;;;;;;;1.20;1.10;;;30.20;36.80;;;;;;4832190;29;45789;-61
2022/08/02 13:17:31;;;;;;;1.63;0.90;;;30.30;36.70;;;;;;4823230;29;45772;-60
2022/08/02 13:19:57;;;;;;;1.33;1.23;;;30.30;36.10;;;;;;4813895;29;45460;-61
2022/08/02 13:22:22;;;;;;;0.93;0.90;;;30.30;36.60;;;;;;4804230;29;45600;-60
2022/08/02 13:24:50;;;;;;;3.33;1.00;;;30.30;36.70;;;;;;4804652;29;45610;-58
2022/08/02 13:27:16;;;;;;;1.25;1.10;;;30.30;36.80;;;;;;4820939;29;44767;-60
2022/08/02 13:29:42;;;;;;;1.20;1.10;;;30.30;36.80;;;;;;4807627;29;45580;-60
2022/08/02 13:32:07;;;;;;;2.97;1.13;;;30.40;36.90;;;;;;4810897;29;45207;-60
2022/08/02 13:34:33;;;;;;;1.02;1.00;;;30.40;37.00;;;;;;4823133;29;46284;-60
2022/08/02 13:36:58;;;;;;;1.15;1.05;;;30.30;37.00;;;;;;4837765;29;45308;-61
2022/08/02 13:39:24;;;;;;;1.10;1.00;;;30.40;36.90;;;;;;4819027;29;44677;-61
2022/08/02 13:41:50;;;;;;;1.83;1.02;;;30.40;36.90;;;;;;4835259;29;45456;-61
2022/08/02 13:44:15;;;;;;;2.45;1.20;;;30.40;36.80;;;;;;4846269;29;47670;-61
2022/08/02 13:46:41;;;;;;;2.28;1.10;;;30.50;36.80;;;;;;4837440;29;45943;-59
2022/08/02 13:49:06;;;;;;;1.40;1.30;;;30.50;36.70;;;;;;4836036;29;45469;-60
2022/08/02 13:51:32;;;;;;;2.97;1.33;;;30.50;36.70;;;;;;4828419;29;45631;-61
2022/08/02 13:53:57;;;;;;;1.40;1.30;;;30.50;36.60;;;;;;4834509;29;45215;-61
2022/08/02 13:56:23;;;;;;;1.42;1.33;;;30.60;36.60;;;;;;4837132;29;45376;-59
2022/08/02 13:58:49;;;;;;;2.65;1.35;;;30.60;36.50;;;;;;4827613;29;45189;-60
2022/08/02 14:01:14;;;;;;;1.48;1.38;;;30.60;36.50;;;;;;4829475;29;45544;-58
2022/08/02 14:03:40;;;;;;;1.40;0.90;;;30.60;36.50;;;;;;4829121;29;45241;-59
2022/08/02 14:06:05;;;;;;;3.40;1.10;;;30.60;36.50;;;;;;4835431;29;45132;-59
2022/08/02 14:08:31;;;;;;;3.28;1.10;;;30.60;36.40;;;;;;4832361;29;45107;-60
2022/08/02 14:10:57;;;;;;;1.23;1.13;;;30.60;36.30;;;;;;4832833;29;45023;-60
2022/08/02 14:13:22;;;;;;;0.82;0.82;;;30.60;36.20;;;;;;4829066;29;46507;-59
2022/08/02 14:15:48;;;;;;;1.17;0.98;;;30.60;36.20;;;;;;4833669;29;45166;-61
2022/08/02 14:18:14;;;;;;;1.48;1.17;;;30.60;36.20;;;;;;4834456;29;45871;-61
2022/08/02 14:20:40;;;;;;;1.85;1.30;;;30.70;36.20;;;;;;4835956;29;44774;-60
2022/08/02 14:23:05;;;;;;;4.50;1.10;;;30.70;36.20;;;;;;4835580;29;45631;-61
2022/08/02 14:25:31;;;;;;;1.13;0.98;;;30.70;36.20;;;;;;4836322;29;44834;-60
2022/08/02 14:27:57;;;;;;;4.25;1.00;;;30.60;36.20;;;;;;4835956;29;45267;-60
2022/08/02 14:30:22;;;;;;;0.90;0.90;;;30.60;36.30;;;;;;4824966;29;46352;-61
2022/08/02 14:32:48;;;;;;;1.70;1.10;;;30.60;36.30;;;;;;4828997;29;46926;-61
2022/08/02 14:35:14;;;;;;;4.70;1.30;;;30.60;36.20;;;;;;4830104;29;44732;-60
2022/08/02 14:37:40;;;;;;;2.65;1.13;;;30.60;36.20;;;;;;4832888;29;45264;-60
2022/08/02 14:40:06;;;;;;;1.00;0.90;;;30.70;36.10;;;;;;4819322;29;45341;-61
2022/08/02 14:42:31;;;;;;;2.90;0.98;;;30.70;35.90;;;;;;4825429;29;45662;-60
2022/08/02 14:44:57;;;;;;;1.10;1.05;;;30.70;35.70;;;;;;4838534;29;45298;-60
2022/08/02 14:47:23;;;;;;;0.90;0.90;;;30.70;35.50;;;;;;4833447;29;45190;-59
2022/08/02 14:49:48;;;;;;;1.70;1.10;;;30.70;35.60;;;;;;4833109;29;45050;-61
2022/08/02 14:52:14;;;;;;;1.60;0.95;;;30.70;35.40;;;;;;4832828;29;47065;-60
2022/08/02 14:54:41;;;;;;;3.17;1.10;;;30.80;35.50;;;;;;4833661;29;45469;-61
2022/08/02 14:57:07;;;;;;;3.45;0.90;;;30.80;35.40;;;;;;4835690;29;45247;-61
2022/08/02 14:59:33;;;;;;;2.05;0.90;;;30.80;35.30;;;;;;4831185;29;45475;-60
2022/08/02 15:01:58;;;;;;;3.25;0.98;;;30.80;35.20;;;;;;4833349;29;45447;-60
2022/08/02 15:04:24;;;;;;;1.30;1.02;;;30.80;35.10;;;;;;4828521;29;45435;-60
2022/08/02 15:06:49;;;;;;;1.92;1.35;;;30.80;35.00;;;;;;4835674;29;45282;-64
2022/08/02 15:09:15;;;;;;;1.27;0.80;;;30.80;34.90;;;;;;4833538;29;45129;-61
2022/08/02 15:11:41;;;;;;;3.58;1.05;;;30.90;34.80;;;;;;4833377;29;46805;-60
2022/08/02 15:14:06;;;;;;;1.55;1.00;;;30.90;34.70;;;;;;4837025;29;45455;-59
2022/08/02 15:16:34;;;;;;;1.42;1.00;;;30.90;34.70;;;;;;4833939;29;45260;-59
2022/08/02 15:19:03;;;;;;;4.60;1.00;;;30.90;34.70;;;;;;4837109;29;45226;-59
2022/08/02 15:21:29;;;;;;;0.98;0.93;;;30.90;34.40;;;;;;4834299;29;45418;-62
2022/08/02 15:23:54;;;;;;;1.10;1.00;;;30.90;34.60;;;;;;4835584;29;45297;-61
2022/08/02 15:26:20;;;;;;;2.35;0.90;;;30.90;34.60;;;;;;4827534;29;45080;-60
2022/08/02 15:28:47;;;;;;;1.38;0.85;;;30.90;34.50;;;;;;4835453;29;45713;-59
2022/08/02 15:31:15;;;;;;;1.08;0.80;;;30.90;34.50;;;;;;4840777;29;45425;-61
2022/08/02 15:33:42;;;;;;;2.45;0.90;;;30.90;34.40;;;;;;4839072;29;45626;-61
2022/08/02 15:36:08;;;;;;;1.00;0.85;;;30.90;34.40;;;;;;4837283;29;45296;-60
2022/08/02 15:38:34;;;;;;;1.63;1.13;;;30.90;34.40;;;;;;4833175;29;44798;-60
2022/08/02 15:41:00;;;;;;;2.08;1.25;;;30.90;34.30;;;;;;4834097;29;46428;-60
2022/08/02 15:43:26;;;;;;;3.70;1.20;;;30.90;34.40;;;;;;4832945;29;45280;-60
2022/08/02 15:45:51;;;;;;;1.88;1.15;;;30.90;34.30;;;;;;4837676;29;45351;-60
2022/08/02 15:48:17;;;;;;;1.20;1.10;;;30.90;34.20;;;;;;4828728;29;45489;-60
2022/08/02 15:50:42;;;;;;;2.42;1.33;;;30.90;34.20;;;;;;4827427;29;45435;-61
2022/08/02 15:53:08;;;;;;;1.67;1.17;;;30.90;34.30;;;;;;4855345;29;45403;-60
2022/08/02 15:55:34;;;;;;;1.08;0.98;;;30.90;34.20;;;;;;4829079;29;45240;-61